Time;durP1;ratioP1;P1;durP2;ratioP2;P2;SDS_P1;SDS_P2;PMS_P1;PMS_P2;Temp;Humidity;BMP_temperature;BMP_pressure;BME280_temperature;BME280_humidity;BME280_pressure;Samples;Min_cycle;Max_cycle;Signal;HPM_P1;HPM_P2
2021/01/05 00:00:36;;;;;;;5.75;5.15;;;22.70;31.50;;;;;;5033150;28;20402;-69
2021/01/05 00:03:01;;;;;;;6.47;5.43;;;22.60;31.20;;;;;;5033184;28;20387;-70
2021/01/05 00:05:27;;;;;;;6.03;5.43;;;22.60;31.50;;;;;;5031229;28;20395;-70
2021/01/05 00:07:53;;;;;;;5.47;4.97;;;22.60;31.50;;;;;;5026058;28;20391;-69
2021/01/05 00:10:19;;;;;;;5.65;5.05;;;22.60;31.50;;;;;;5032052;28;20450;-69
2021/01/05 00:12:45;;;;;;;5.30;4.80;;;22.60;31.50;;;;;;5031946;28;20395;-70
2021/01/05 00:15:13;;;;;;;5.50;4.70;;;22.50;31.40;;;;;;5033178;28;20414;-70
2021/01/05 00:17:38;;;;;;;5.75;5.15;;;22.50;31.50;;;;;;5034205;28;20466;-69
2021/01/05 00:20:15;;;;;;;5.50;5.00;;;22.50;31.40;;;;;;5033428;28;20486;-69
2021/01/05 00:22:41;;;;;;;5.65;4.95;;;22.50;31.50;;;;;;5032861;28;20391;-69
2021/01/05 00:25:08;;;;;;;5.50;5.00;;;22.40;31.40;;;;;;5033186;28;20441;-70
2021/01/05 00:27:34;;;;;;;5.90;5.00;;;22.40;31.50;;;;;;5033557;28;20398;-69
2021/01/05 00:30:02;;;;;;;5.57;4.97;;;22.40;31.40;;;;;;5033217;28;20953;-69
2021/01/05 00:32:28;;;;;;;5.60;4.90;;;22.40;31.50;;;;;;5033531;28;20450;-71
2021/01/05 00:34:54;;;;;;;5.68;5.07;;;22.30;31.40;;;;;;5032764;28;20447;-71
2021/01/05 00:37:20;;;;;;;5.73;5.13;;;22.30;31.40;;;;;;5032588;28;20449;-72
2021/01/05 00:39:45;;;;;;;5.88;5.28;;;22.30;31.40;;;;;;5032876;28;20390;-71
2021/01/05 00:42:12;;;;;;;5.25;4.75;;;22.30;31.50;;;;;;5032376;28;20449;-71
2021/01/05 00:44:38;;;;;;;5.35;4.85;;;22.30;31.50;;;;;;5032962;28;20391;-71
2021/01/05 00:47:04;;;;;;;5.15;4.65;;;22.20;31.50;;;;;;5032528;28;20398;-71
2021/01/05 00:49:30;;;;;;;5.33;4.77;;;22.20;31.50;;;;;;5029548;28;20477;-72
2021/01/05 00:51:55;;;;;;;5.20;4.70;;;22.20;31.50;;;;;;5032549;28;20472;-72
2021/01/05 00:54:21;;;;;;;5.30;4.78;;;22.20;31.50;;;;;;5030897;28;20458;-70
2021/01/05 00:57:05;;;;;;;5.35;4.43;;;22.20;31.50;;;;;;5031146;28;20399;-69
2021/01/05 00:59:31;;;;;;;5.00;4.50;;;22.10;31.50;;;;;;5033266;28;20383;-69
2021/01/05 01:01:57;;;;;;;5.40;4.72;;;22.10;31.50;;;;;;5031444;28;20756;-69
2021/01/05 01:04:23;;;;;;;5.15;4.65;;;22.10;31.40;;;;;;5033079;28;20388;-69
2021/01/05 01:06:48;;;;;;;4.90;4.40;;;22.10;31.50;;;;;;5030196;28;20406;-69
2021/01/05 01:09:14;;;;;;;6.63;4.97;;;22.10;31.60;;;;;;5030974;28;20403;-69
2021/01/05 01:12:15;;;;;;;5.53;4.60;;;22.10;32.00;;;;;;5032313;28;20391;-69
2021/01/05 01:14:42;;;;;;;5.83;4.43;;;22.00;32.10;;;;;;5031576;28;20533;-69
2021/01/05 01:17:09;;;;;;;4.80;4.30;;;22.00;32.20;;;;;;5031958;28;20391;-68
2021/01/05 01:19:35;;;;;;;5.28;4.25;;;22.10;32.30;;;;;;5031709;28;20891;-69
2021/01/05 01:22:01;;;;;;;4.85;4.30;;;22.00;32.20;;;;;;5031346;28;20469;-69
2021/01/05 01:24:26;;;;;;;4.80;4.30;;;21.90;32.00;;;;;;5032713;28;20397;-69
2021/01/05 01:26:53;;;;;;;4.63;4.10;;;21.90;32.10;;;;;;5032820;28;20387;-69
2021/01/05 01:29:20;;;;;;;5.70;4.53;;;21.90;31.90;;;;;;5032773;28;20395;-68
2021/01/05 01:31:46;;;;;;;4.80;4.30;;;21.90;32.00;;;;;;5032343;28;20399;-68
2021/01/05 01:34:14;;;;;;;4.70;4.28;;;21.90;32.50;;;;;;5032465;28;20461;-69
2021/01/05 01:36:40;;;;;;;4.90;4.40;;;21.80;31.90;;;;;;5032542;28;20398;-69
2021/01/05 01:39:06;;;;;;;4.55;4.05;;;21.80;31.90;;;;;;5032603;28;20445;-69
2021/01/05 01:41:33;;;;;;;5.43;4.40;;;21.80;31.90;;;;;;5032663;28;20941;-69
2021/01/05 01:43:59;;;;;;;5.32;4.22;;;21.80;31.80;;;;;;5031922;28;20395;-69
2021/01/05 01:46:30;;;;;;;4.30;3.90;;;21.80;31.80;;;;;;5032424;28;20490;-69
2021/01/05 01:48:56;;;;;;;4.30;3.90;;;21.80;31.90;;;;;;5032316;28;20402;-69
2021/01/05 01:51:22;;;;;;;4.50;4.00;;;21.70;31.80;;;;;;5032441;28;20747;-69
2021/01/05 01:54:09;;;;;;;5.30;4.03;;;21.70;31.80;;;;;;5032024;28;20419;-69
2021/01/05 01:57:09;;;;;;;4.32;3.90;;;21.70;31.80;;;;;;5032263;28;20391;-69
2021/01/05 01:59:54;;;;;;;4.53;4.13;;;21.70;31.70;;;;;;5032274;28;20387;-69
2021/01/05 02:02:48;;;;;;;4.35;3.90;;;21.60;31.70;;;;;;5032217;28;20465;-69
2021/01/05 02:05:17;;;;;;;4.30;3.85;;;21.60;31.70;;;;;;5032180;28;20406;-69
2021/01/05 02:07:52;;;;;;;4.63;3.65;;;21.60;31.60;;;;;;5031837;28;20878;-69
2021/01/05 02:10:44;;;;;;;4.25;3.80;;;21.60;31.70;;;;;;5030670;28;20402;-69
2021/01/05 02:13:34;;;;;;;4.45;3.95;;;21.60;31.70;;;;;;5026382;28;20482;-69
2021/01/05 02:16:19;;;;;;;4.35;3.90;;;21.60;31.60;;;;;;5031321;28;20446;-69
2021/01/05 02:18:53;;;;;;;4.20;3.80;;;21.50;31.60;;;;;;5030526;28;20403;-69
2021/01/05 02:21:23;;;;;;;4.00;3.60;;;21.50;31.60;;;;;;5030614;28;20401;-69
2021/01/05 02:24:16;;;;;;;4.83;4.13;;;21.50;31.70;;;;;;5031532;28;20477;-69
2021/01/05 02:26:47;;;;;;;5.00;3.92;;;21.50;31.70;;;;;;5031770;28;20402;-69
2021/01/05 02:29:26;;;;;;;4.53;3.50;;;21.50;31.60;;;;;;5029808;28;20388;-70
2021/01/05 02:32:20;;;;;;;4.03;3.63;;;21.40;31.60;;;;;;5029753;28;20426;-69
2021/01/05 02:35:11;;;;;;;4.35;3.75;;;21.40;31.60;;;;;;5029999;28;20430;-69
2021/01/05 02:37:42;;;;;;;4.15;3.70;;;21.40;31.60;;;;;;5031585;28;20399;-69
2021/01/05 02:40:20;;;;;;;3.90;3.50;;;21.40;31.60;;;;;;5029185;28;20412;-70
2021/01/05 02:43:00;;;;;;;4.03;3.58;;;21.30;31.50;;;;;;5031511;28;20386;-69
2021/01/05 02:45:33;;;;;;;3.60;3.30;;;21.30;31.50;;;;;;5031532;28;20390;-69
2021/01/05 02:48:13;;;;;;;3.88;3.47;;;21.30;31.50;;;;;;5029706;28;20399;-69
2021/01/05 02:50:53;;;;;;;4.00;3.60;;;21.30;31.50;;;;;;5029982;28;20399;-69
2021/01/05 02:53:35;;;;;;;4.07;3.67;;;21.30;31.30;;;;;;5031405;28;20925;-69
2021/01/05 02:56:19;;;;;;;3.78;3.47;;;21.40;31.20;;;;;;5029203;28;20729;-69
2021/01/05 02:59:19;;;;;;;3.97;3.58;;;21.50;31.00;;;;;;5029652;28;20391;-69
2021/01/05 03:01:47;;;;;;;3.50;3.20;;;21.50;31.00;;;;;;5031232;28;20394;-69
2021/01/05 03:04:13;;;;;;;3.60;3.30;;;21.60;31.00;;;;;;5030695;28;20398;-69
2021/01/05 03:06:48;;;;;;;3.97;3.57;;;21.60;31.10;;;;;;5030032;28;20399;-69
2021/01/05 03:09:26;;;;;;;3.80;3.40;;;21.60;31.00;;;;;;5031435;28;20941;-69
2021/01/05 03:12:16;;;;;;;3.30;3.00;;;21.60;30.90;;;;;;5029720;28;20453;-69
2021/01/05 03:15:15;;;;;;;3.35;2.95;;;21.70;30.90;;;;;;5031174;28;20473;-69
2021/01/05 03:17:56;;;;;;;3.80;3.40;;;21.70;31.00;;;;;;5031173;28;20868;-69
2021/01/05 03:20:30;;;;;;;3.50;3.20;;;21.70;30.90;;;;;;5029830;28;20417;-69
2021/01/05 03:23:06;;;;;;;3.60;3.13;;;21.70;30.80;;;;;;5028624;28;20397;-69
2021/01/05 03:25:35;;;;;;;3.30;2.97;;;21.70;30.80;;;;;;5030478;28;20394;-69
2021/01/05 03:28:04;;;;;;;3.40;3.10;;;21.70;30.70;;;;;;5030599;28;20407;-69
2021/01/05 03:30:45;;;;;;;3.40;3.10;;;21.70;30.60;;;;;;5029922;28;20490;-69
2021/01/05 03:33:12;;;;;;;3.53;3.05;;;21.70;30.60;;;;;;5029684;28;20411;-69
2021/01/05 03:35:38;;;;;;;3.40;3.10;;;21.80;30.80;;;;;;5029715;28;20402;-69
2021/01/05 03:38:04;;;;;;;3.50;3.20;;;21.80;30.70;;;;;;5030556;28;20391;-69
2021/01/05 03:40:30;;;;;;;3.30;3.00;;;21.80;30.70;;;;;;5031080;28;20974;-69
2021/01/05 03:42:56;;;;;;;3.30;3.00;;;21.80;30.70;;;;;;5029618;28;20831;-70
2021/01/05 03:45:28;;;;;;;3.33;3.00;;;21.70;30.60;;;;;;5030729;28;20890;-69
2021/01/05 03:47:54;;;;;;;3.10;2.80;;;21.80;30.60;;;;;;5029302;28;20395;-69
2021/01/05 03:50:21;;;;;;;3.03;2.72;;;21.80;30.70;;;;;;5030751;28;20387;-69
2021/01/05 03:52:47;;;;;;;3.05;2.75;;;21.80;30.60;;;;;;5030774;28;20388;-69
2021/01/05 03:55:14;;;;;;;2.88;2.55;;;21.80;30.80;;;;;;5029485;28;20425;-69
2021/01/05 03:57:41;;;;;;;3.47;2.78;;;21.80;30.60;;;;;;5029467;28;20394;-69
2021/01/05 04:00:08;;;;;;;3.10;2.80;;;21.80;30.80;;;;;;5029645;28;20402;-69
2021/01/05 04:02:34;;;;;;;3.05;2.75;;;21.80;30.80;;;;;;5029429;28;20392;-69
2021/01/05 04:05:00;;;;;;;3.00;2.70;;;21.70;31.10;;;;;;5029552;28;20597;-69
2021/01/05 04:07:25;;;;;;;3.10;2.80;;;21.70;30.80;;;;;;5029548;28;20390;-69
2021/01/05 04:09:51;;;;;;;4.03;2.60;;;21.70;30.50;;;;;;5031293;28;20969;-69
2021/01/05 04:12:17;;;;;;;3.20;2.70;;;21.70;30.80;;;;;;5032595;28;20478;-69
2021/01/05 04:14:42;;;;;;;2.92;2.63;;;21.80;30.60;;;;;;5033996;28;20894;-70
2021/01/05 04:17:08;;;;;;;3.17;2.60;;;21.80;30.80;;;;;;5032624;28;20905;-69
2021/01/05 04:19:34;;;;;;;3.28;2.92;;;21.80;31.00;;;;;;5032645;28;20395;-69
2021/01/05 04:21:59;;;;;;;2.90;2.60;;;21.80;30.80;;;;;;5033605;28;20383;-69
2021/01/05 04:24:25;;;;;;;3.10;2.60;;;21.80;31.30;;;;;;5034374;28;20387;-69
2021/01/05 04:26:51;;;;;;;3.20;2.73;;;21.90;31.50;;;;;;5033900;28;20392;-69
2021/01/05 04:29:16;;;;;;;3.00;2.70;;;21.90;31.20;;;;;;4976515;28;20422;-69
2021/01/05 04:31:44;;;;;;;4.03;2.70;;;21.90;31.80;;;;;;5032259;28;20402;-69
2021/01/05 04:34:11;;;;;;;4.47;2.60;;;21.90;32.10;;;;;;5033320;28;20514;-68
2021/01/05 04:36:38;;;;;;;3.30;2.55;;;21.90;32.30;;;;;;5034060;28;20394;-69
2021/01/05 04:39:05;;;;;;;4.28;2.70;;;21.90;32.40;;;;;;5033682;28;20395;-69
2021/01/05 04:41:37;;;;;;;5.22;2.50;;;22.00;32.50;;;;;;5033494;28;20383;-69
2021/01/05 04:44:04;;;;;;;3.83;2.42;;;22.00;32.60;;;;;;5031920;28;20892;-69
2021/01/05 04:46:35;;;;;;;5.20;2.95;;;22.00;32.30;;;;;;5033725;28;20868;-69
2021/01/05 04:49:22;;;;;;;5.80;2.60;;;22.00;32.10;;;;;;5033135;28;20382;-69
2021/01/05 04:52:11;;;;;;;3.70;2.63;;;22.00;32.40;;;;;;5031129;28;20402;-69
2021/01/05 04:54:43;;;;;;;4.60;3.10;;;22.00;31.90;;;;;;5032544;28;20441;-69
2021/01/05 04:57:18;;;;;;;3.83;2.80;;;22.00;32.90;;;;;;5031727;28;20935;-69
2021/01/05 04:59:54;;;;;;;4.50;2.60;;;22.00;32.30;;;;;;5032099;28;20426;-69
2021/01/05 05:02:29;;;;;;;5.95;2.75;;;22.00;32.80;;;;;;5032050;28;20400;-69
2021/01/05 05:05:13;;;;;;;4.90;2.50;;;22.00;32.20;;;;;;5031905;28;20411;-68
2021/01/05 05:07:54;;;;;;;3.73;2.53;;;22.00;32.20;;;;;;5032012;28;20581;-69
2021/01/05 05:10:31;;;;;;;7.15;2.65;;;22.00;32.70;;;;;;5032650;28;20387;-69
2021/01/05 05:13:19;;;;;;;4.18;2.60;;;22.00;32.40;;;;;;5031378;28;20399;-69
2021/01/05 05:15:51;;;;;;;4.30;2.60;;;22.00;32.60;;;;;;5031741;28;20419;-68
2021/01/05 05:18:41;;;;;;;4.70;2.45;;;22.10;32.00;;;;;;5030812;28;20449;-69
2021/01/05 05:21:29;;;;;;;5.40;2.50;;;22.00;31.90;;;;;;5031362;28;20883;-69
2021/01/05 05:24:23;;;;;;;7.80;2.60;;;22.00;32.10;;;;;;5031222;28;20396;-69
2021/01/05 05:27:01;;;;;;;5.95;2.60;;;22.00;32.10;;;;;;5032833;28;20387;-69
2021/01/05 05:29:30;;;;;;;7.80;2.40;;;22.00;32.00;;;;;;5031495;28;20387;-69
2021/01/05 05:32:00;;;;;;;4.65;2.38;;;21.90;31.90;;;;;;5032484;28;20407;-69
2021/01/05 05:34:33;;;;;;;3.40;2.20;;;21.90;31.50;;;;;;5032297;28;20442;-69
2021/01/05 05:37:27;;;;;;;5.10;2.20;;;21.90;31.60;;;;;;5032491;28;20423;-68
2021/01/05 05:40:08;;;;;;;5.30;2.90;;;21.90;31.60;;;;;;5032579;28;20916;-68
2021/01/05 05:43:02;;;;;;;6.25;2.67;;;21.80;31.60;;;;;;5030980;28;20396;-68
2021/01/05 05:45:47;;;;;;;3.80;2.40;;;21.80;31.20;;;;;;5032123;28;20395;-69
2021/01/05 05:48:36;;;;;;;4.47;2.30;;;21.80;30.90;;;;;;5031902;28;20380;-69
2021/01/05 05:51:26;;;;;;;4.35;2.53;;;21.80;31.20;;;;;;5030944;28;21087;-69
2021/01/05 05:54:11;;;;;;;5.25;2.55;;;21.80;31.90;;;;;;5030653;28;20410;-68
2021/01/05 05:56:50;;;;;;;5.03;2.50;;;21.80;32.00;;;;;;5032182;28;20395;-69
2021/01/05 05:59:18;;;;;;;4.07;2.47;;;21.80;31.80;;;;;;5032363;28;20783;-68
2021/01/05 06:01:44;;;;;;;3.70;2.20;;;21.70;31.60;;;;;;5032063;28;20383;-68
2021/01/05 06:04:12;;;;;;;3.92;2.47;;;21.70;31.50;;;;;;5031724;28;20963;-69
2021/01/05 06:06:39;;;;;;;4.47;2.60;;;21.70;31.60;;;;;;5031988;28;20392;-68
2021/01/05 06:09:05;;;;;;;4.20;2.30;;;21.70;31.60;;;;;;5031851;28;20418;-68
2021/01/05 06:11:34;;;;;;;3.05;2.22;;;21.80;31.20;;;;;;5031901;28;20855;-69
2021/01/05 06:14:03;;;;;;;6.72;2.60;;;21.70;31.30;;;;;;5029141;28;20442;-68
2021/01/05 06:16:30;;;;;;;3.85;2.40;;;21.80;31.10;;;;;;5030306;28;20411;-68
2021/01/05 06:18:56;;;;;;;2.72;2.42;;;21.70;30.80;;;;;;5031591;28;20863;-68
2021/01/05 06:21:22;;;;;;;3.33;2.40;;;21.70;31.20;;;;;;5031725;28;20409;-68
2021/01/05 06:23:47;;;;;;;3.47;2.33;;;21.80;31.20;;;;;;5031570;28;20390;-68
2021/01/05 06:26:18;;;;;;;2.80;2.28;;;21.70;31.60;;;;;;5031039;28;20398;-68
2021/01/05 06:28:43;;;;;;;4.47;2.10;;;21.70;31.50;;;;;;5031157;28;20391;-69
2021/01/05 06:31:09;;;;;;;3.75;2.40;;;21.70;31.30;;;;;;5030115;28;20896;-69
2021/01/05 06:33:35;;;;;;;4.50;2.30;;;21.70;31.30;;;;;;5031116;28;20939;-68
2021/01/05 06:36:01;;;;;;;3.75;2.20;;;21.70;31.50;;;;;;5031448;28;20466;-68
2021/01/05 06:38:26;;;;;;;3.53;2.30;;;21.70;31.60;;;;;;5031336;28;20393;-68
2021/01/05 06:40:52;;;;;;;4.28;2.30;;;21.70;31.40;;;;;;5032070;28;20749;-68
2021/01/05 06:43:18;;;;;;;9.27;2.30;;;21.70;31.50;;;;;;5031055;28;20392;-69
2021/01/05 06:45:43;;;;;;;5.53;2.37;;;21.80;31.80;;;;;;5031739;28;20395;-69
2021/01/05 06:48:09;;;;;;;5.85;2.25;;;21.70;31.70;;;;;;5031665;28;20444;-68
2021/01/05 06:50:35;;;;;;;3.93;2.43;;;21.70;31.60;;;;;;5032226;28;20441;-68
2021/01/05 06:53:01;;;;;;;4.68;2.40;;;21.70;31.50;;;;;;5031856;28;20394;-68
2021/01/05 06:55:27;;;;;;;6.03;2.40;;;21.70;31.50;;;;;;5031932;28;20422;-68
2021/01/05 06:57:52;;;;;;;3.58;2.47;;;21.70;31.60;;;;;;5031810;28;20773;-68
2021/01/05 07:00:24;;;;;;;3.70;2.30;;;21.70;31.70;;;;;;5031082;28;20900;-69
2021/01/05 07:02:50;;;;;;;3.47;2.30;;;21.70;31.20;;;;;;5031469;28;20402;-68
2021/01/05 07:05:17;;;;;;;3.42;2.20;;;21.70;31.30;;;;;;5031626;28;20489;-68
2021/01/05 07:07:43;;;;;;;5.57;2.35;;;21.70;31.20;;;;;;5030437;28;20478;-69
2021/01/05 07:10:10;;;;;;;4.07;2.23;;;21.70;31.50;;;;;;5046083;28;20410;-69
2021/01/05 07:12:36;;;;;;;6.10;2.42;;;21.70;31.20;;;;;;5030656;28;20949;-69
2021/01/05 07:15:04;;;;;;;3.17;2.47;;;21.70;31.50;;;;;;5031596;28;20919;-68
2021/01/05 07:17:30;;;;;;;4.60;2.50;;;21.70;31.50;;;;;;5031243;28;20394;-68
2021/01/05 07:19:55;;;;;;;4.23;2.20;;;21.70;30.80;;;;;;5029813;28;20403;-68
2021/01/05 07:22:21;;;;;;;3.28;2.13;;;21.60;30.60;;;;;;5030768;28;20410;-68
2021/01/05 07:24:46;;;;;;;4.17;2.30;;;21.60;31.00;;;;;;5031122;28;20433;-68
2021/01/05 07:27:12;;;;;;;3.72;2.30;;;21.60;31.00;;;;;;5030938;28;20785;-69
2021/01/05 07:29:38;;;;;;;4.63;2.40;;;21.60;31.00;;;;;;5030779;28;20399;-69
2021/01/05 07:32:04;;;;;;;6.07;2.40;;;21.60;31.00;;;;;;5028967;28;20469;-69
2021/01/05 07:34:29;;;;;;;4.80;2.28;;;21.60;31.10;;;;;;5029245;28;20515;-69
2021/01/05 07:36:59;;;;;;;4.63;2.20;;;21.60;31.30;;;;;;5030651;28;20474;-68
2021/01/05 07:39:27;;;;;;;3.67;2.22;;;21.60;31.40;;;;;;5029227;28;20895;-69
2021/01/05 07:42:14;;;;;;;3.13;2.30;;;21.60;31.30;;;;;;5030570;28;20379;-69
2021/01/05 07:44:40;;;;;;;3.85;2.22;;;21.60;31.20;;;;;;5034047;28;20902;-68
2021/01/05 07:47:06;;;;;;;4.30;2.58;;;21.60;31.30;;;;;;5034105;28;20752;-68
2021/01/05 07:49:32;;;;;;;2.50;2.10;;;21.60;31.10;;;;;;5033539;28;20937;-69
2021/01/05 07:51:57;;;;;;;3.60;2.20;;;21.60;31.20;;;;;;5032555;28;20391;-68
2021/01/05 07:54:23;;;;;;;3.87;2.20;;;21.60;31.00;;;;;;5032280;28;20423;-69
2021/01/05 07:56:49;;;;;;;5.10;2.40;;;21.50;31.50;;;;;;5032918;28;20401;-68
2021/01/05 07:59:18;;;;;;;4.53;2.50;;;21.50;31.00;;;;;;5034474;28;20399;-68
2021/01/05 08:01:44;;;;;;;2.95;2.20;;;21.50;31.50;;;;;;5032937;28;20879;-69
2021/01/05 08:04:10;;;;;;;3.65;2.33;;;21.40;30.70;;;;;;5034042;28;20529;-68
2021/01/05 08:06:41;;;;;;;3.77;2.30;;;21.50;30.80;;;;;;5034498;28;20478;-68
2021/01/05 08:09:06;;;;;;;3.70;2.35;;;21.40;30.80;;;;;;5027883;28;20411;-68
2021/01/05 08:11:38;;;;;;;2.80;2.20;;;21.40;30.70;;;;;;5019126;28;20543;-68
2021/01/05 08:14:04;;;;;;;3.78;2.55;;;21.40;30.70;;;;;;5017428;28;20453;-68
2021/01/05 08:16:30;;;;;;;3.95;2.20;;;21.40;30.60;;;;;;5033138;28;20398;-69
2021/01/05 08:18:55;;;;;;;2.80;2.30;;;21.40;30.70;;;;;;5033638;28;20380;-68
2021/01/05 08:21:25;;;;;;;2.85;2.25;;;21.40;30.60;;;;;;5034128;28;20395;-68
2021/01/05 08:23:50;;;;;;;2.85;2.20;;;21.40;30.70;;;;;;5033935;28;20383;-68
2021/01/05 08:26:16;;;;;;;3.33;2.40;;;21.40;30.70;;;;;;5032777;28;20383;-68
2021/01/05 08:28:42;;;;;;;3.20;2.20;;;21.30;30.60;;;;;;5033569;28;20406;-68
2021/01/05 08:31:08;;;;;;;2.93;2.10;;;21.30;30.70;;;;;;5033436;28;21009;-68
2021/01/05 08:33:33;;;;;;;3.08;2.30;;;21.20;30.70;;;;;;5033540;28;20399;-68
2021/01/05 08:35:59;;;;;;;3.30;2.10;;;21.20;30.70;;;;;;5033248;28;20403;-68
2021/01/05 08:38:25;;;;;;;2.30;2.00;;;21.20;30.70;;;;;;5032072;28;20387;-68
2021/01/05 08:40:50;;;;;;;2.65;2.30;;;21.20;30.70;;;;;;5033763;28;20409;-68
2021/01/05 08:43:16;;;;;;;3.07;2.23;;;21.20;30.70;;;;;;5033754;28;20887;-68
2021/01/05 08:45:42;;;;;;;2.75;2.22;;;21.20;30.70;;;;;;5032050;28;20879;-68
2021/01/05 08:48:08;;;;;;;2.40;2.20;;;21.20;30.70;;;;;;5030750;28;20519;-68
2021/01/05 08:50:34;;;;;;;2.72;2.05;;;21.20;30.70;;;;;;5031430;28;20474;-68
2021/01/05 08:53:09;;;;;;;2.40;2.20;;;21.20;30.70;;;;;;5032186;28;20481;-70
2021/01/05 08:55:42;;;;;;;2.75;2.10;;;21.20;30.70;;;;;;5028879;28;20781;-68
2021/01/05 08:58:08;;;;;;;2.45;2.10;;;21.20;30.70;;;;;;5029584;28;20392;-68
2021/01/05 09:00:34;;;;;;;2.53;2.00;;;21.20;30.70;;;;;;5031952;28;20413;-68
2021/01/05 09:03:00;;;;;;;3.25;2.17;;;21.10;30.70;;;;;;5031922;28;20465;-68
2021/01/05 09:05:26;;;;;;;2.60;2.20;;;21.10;30.70;;;;;;5032142;28;20383;-68
2021/01/05 09:07:51;;;;;;;3.20;2.03;;;21.10;30.90;;;;;;5032119;28;20875;-68
2021/01/05 09:10:22;;;;;;;5.28;2.42;;;21.10;31.10;;;;;;5030962;28;20969;-68
2021/01/05 09:12:48;;;;;;;6.33;2.30;;;21.10;31.80;;;;;;5028712;28;20427;-69
2021/01/05 09:15:16;;;;;;;4.68;2.30;;;21.10;32.20;;;;;;5030509;28;20839;-68
2021/01/05 09:17:46;;;;;;;4.32;2.30;;;21.20;32.80;;;;;;5031949;28;20384;-68
2021/01/05 09:20:20;;;;;;;3.13;2.30;;;21.20;33.00;;;;;;5031655;28;20417;-68
2021/01/05 09:22:46;;;;;;;4.57;2.13;;;21.20;32.80;;;;;;5028056;28;20891;-68
2021/01/05 09:25:12;;;;;;;4.23;2.10;;;21.20;32.70;;;;;;5031906;28;20486;-69
2021/01/05 09:27:38;;;;;;;2.80;2.17;;;21.20;32.50;;;;;;5029769;28;20399;-69
2021/01/05 09:30:12;;;;;;;5.50;2.28;;;21.20;32.40;;;;;;5031675;28;20933;-69
2021/01/05 09:32:37;;;;;;;2.58;2.10;;;21.20;32.50;;;;;;5031080;28;20403;-68
2021/01/05 09:35:05;;;;;;;3.70;2.30;;;21.20;32.40;;;;;;5028003;28;20562;-68
2021/01/05 09:37:31;;;;;;;4.07;2.20;;;21.30;32.40;;;;;;5031630;28;20383;-68
2021/01/05 09:39:57;;;;;;;3.40;2.20;;;21.20;32.50;;;;;;5029270;28;20895;-68
2021/01/05 09:42:22;;;;;;;2.85;2.25;;;21.20;32.30;;;;;;5028095;28;20395;-68
2021/01/05 09:44:49;;;;;;;4.55;2.30;;;21.30;32.30;;;;;;5030834;28;20414;-68
2021/01/05 09:47:19;;;;;;;8.88;2.42;;;21.30;32.40;;;;;;5030441;28;20399;-68
2021/01/05 09:49:46;;;;;;;22.60;2.95;;;21.20;32.10;;;;;;5028475;28;20444;-68
2021/01/05 09:52:12;;;;;;;23.55;2.95;;;21.20;32.10;;;;;;5029761;28;20879;-68
2021/01/05 09:54:38;;;;;;;14.73;2.80;;;21.20;32.40;;;;;;5024146;28;20415;-68
2021/01/05 09:57:04;;;;;;;7.47;2.13;;;21.20;32.30;;;;;;5031128;28;20882;-68
2021/01/05 09:59:30;;;;;;;8.38;2.30;;;21.20;32.10;;;;;;5029736;28;20398;-68
2021/01/05 10:02:01;;;;;;;5.85;2.10;;;21.30;31.80;;;;;;5029428;28;20481;-69
2021/01/05 10:04:26;;;;;;;5.50;1.90;;;21.20;31.50;;;;;;5027678;28;20399;-68
2021/01/05 10:06:52;;;;;;;3.13;1.90;;;21.20;31.30;;;;;;5026759;28;20391;-69
2021/01/05 10:09:18;;;;;;;2.53;1.90;;;21.20;31.20;;;;;;5030431;28;20413;-68
2021/01/05 10:11:45;;;;;;;6.00;2.40;;;21.30;31.00;;;;;;5029395;28;20398;-68
2021/01/05 10:14:13;;;;;;;3.72;2.20;;;21.20;30.80;;;;;;5031117;28;20488;-68
2021/01/05 10:16:39;;;;;;;2.90;2.20;;;21.20;30.70;;;;;;5030330;28;20391;-69
2021/01/05 10:19:05;;;;;;;6.35;2.10;;;21.20;30.60;;;;;;5031842;28;20445;-68
2021/01/05 10:21:39;;;;;;;3.70;2.28;;;21.20;30.50;;;;;;5030704;28;20879;-68
2021/01/05 10:24:07;;;;;;;2.35;2.00;;;21.20;30.50;;;;;;5030015;28;20383;-68
2021/01/05 10:26:33;;;;;;;3.55;2.30;;;21.20;30.40;;;;;;5031367;28;20383;-68
2021/01/05 10:28:59;;;;;;;2.95;2.00;;;21.10;30.20;;;;;;5030791;28;20395;-68
2021/01/05 10:31:26;;;;;;;4.78;2.40;;;21.20;30.30;;;;;;5030917;28;20390;-68
2021/01/05 10:33:51;;;;;;;7.55;2.90;;;21.10;30.30;;;;;;5033089;28;20441;-68
2021/01/05 10:36:19;;;;;;;5.73;2.70;;;21.00;30.50;;;;;;5043063;28;20401;-68
2021/01/05 10:38:49;;;;;;;8.68;3.38;;;21.10;30.50;;;;;;5034529;28;20814;-69
2021/01/05 10:41:16;;;;;;;7.85;2.92;;;21.00;30.30;;;;;;5036129;28;20389;-68
2021/01/05 10:43:42;;;;;;;8.95;3.47;;;21.00;30.40;;;;;;5043142;28;20855;-68
2021/01/05 10:46:08;;;;;;;25.85;5.70;;;21.00;30.70;;;;;;5043418;28;20389;-68
2021/01/05 10:48:34;;;;;;;19.92;5.40;;;21.00;30.50;;;;;;5033856;28;20387;-68
2021/01/05 10:50:59;;;;;;;24.77;5.77;;;21.00;30.80;;;;;;5047832;28;20578;-68
2021/01/05 10:53:26;;;;;;;19.83;5.93;;;21.00;31.00;;;;;;5037459;28;20386;-68
2021/01/05 10:55:52;;;;;;;22.35;5.70;;;21.00;30.70;;;;;;5051305;28;21008;-68
2021/01/05 10:58:18;;;;;;;17.55;5.82;;;21.10;30.90;;;;;;5035021;28;20481;-68
2021/01/05 11:00:44;;;;;;;14.90;5.63;;;21.10;30.80;;;;;;5042620;28;20464;-68
2021/01/05 11:03:09;;;;;;;16.40;5.20;;;21.20;31.00;;;;;;5037000;28;20395;-68
2021/01/05 11:05:35;;;;;;;15.20;5.20;;;21.20;30.80;;;;;;5042546;28;20485;-68
2021/01/05 11:08:01;;;;;;;13.13;4.78;;;21.10;30.70;;;;;;5038072;28;20394;-68
2021/01/05 11:10:26;;;;;;;12.00;5.03;;;21.10;30.80;;;;;;5042951;28;20394;-68
2021/01/05 11:12:56;;;;;;;10.82;5.15;;;21.10;30.90;;;;;;5042617;28;20809;-68
2021/01/05 11:15:21;;;;;;;13.90;4.78;;;21.20;30.50;;;;;;5043389;28;20898;-68
2021/01/05 11:17:47;;;;;;;13.32;4.72;;;21.10;30.80;;;;;;5046922;28;20401;-68
2021/01/05 11:20:14;;;;;;;11.83;4.33;;;21.20;30.80;;;;;;5036996;28;20395;-68
2021/01/05 11:22:40;;;;;;;11.70;4.50;;;21.20;30.60;;;;;;5034894;28;20883;-68
2021/01/05 11:25:07;;;;;;;22.92;6.10;;;21.20;30.50;;;;;;5035220;28;20437;-68
2021/01/05 11:27:33;;;;;;;19.83;5.75;;;21.10;30.70;;;;;;5033906;28;20398;-68
2021/01/05 11:29:58;;;;;;;17.90;5.47;;;21.20;30.70;;;;;;5033793;28;20399;-68
2021/01/05 11:32:24;;;;;;;20.42;5.65;;;21.10;30.80;;;;;;5034262;28;20398;-68
2021/01/05 11:34:50;;;;;;;21.23;5.70;;;21.10;30.70;;;;;;5034766;28;20501;-68
2021/01/05 11:37:21;;;;;;;18.25;5.85;;;21.10;30.60;;;;;;5034907;28;20437;-68
2021/01/05 11:39:48;;;;;;;17.58;5.88;;;21.10;30.50;;;;;;5034827;28;20375;-68
2021/01/05 11:42:17;;;;;;;15.30;5.20;;;21.10;30.30;;;;;;5035117;28;20402;-68
2021/01/05 11:44:45;;;;;;;14.73;5.10;;;21.10;30.20;;;;;;5033328;28;20421;-68
2021/01/05 11:47:12;;;;;;;14.87;5.30;;;21.10;30.20;;;;;;5034901;28;20935;-69
2021/01/05 11:49:37;;;;;;;13.27;4.88;;;21.10;30.20;;;;;;5034353;28;20391;-68
2021/01/05 11:52:03;;;;;;;12.23;4.70;;;21.10;30.10;;;;;;5034319;28;20383;-68
2021/01/05 11:54:29;;;;;;;14.65;4.95;;;21.10;30.10;;;;;;5033626;28;20418;-68
2021/01/05 11:56:59;;;;;;;10.97;4.33;;;21.10;30.00;;;;;;5033828;28;20899;-68
2021/01/05 11:59:25;;;;;;;11.02;4.45;;;21.10;30.00;;;;;;5032490;28;20386;-68
2021/01/05 12:01:52;;;;;;;11.60;4.97;;;21.00;30.00;;;;;;5032984;28;20383;-68
2021/01/05 12:04:18;;;;;;;10.98;4.90;;;21.10;30.00;;;;;;5033122;28;20399;-69
2021/01/05 12:06:49;;;;;;;11.10;4.85;;;21.00;30.00;;;;;;5032579;28;20509;-68
2021/01/05 12:09:15;;;;;;;12.13;5.13;;;21.00;30.20;;;;;;5057569;28;20394;-69
2021/01/05 12:11:41;;;;;;;12.80;4.65;;;21.10;30.30;;;;;;5031010;28;20467;-68
2021/01/05 12:14:07;;;;;;;10.95;5.53;;;21.10;30.30;;;;;;5031341;28;20874;-68
2021/01/05 12:16:39;;;;;;;12.38;5.65;;;21.10;30.50;;;;;;5032671;28;20426;-68
2021/01/05 12:19:07;;;;;;;11.10;5.97;;;21.10;30.60;;;;;;5031081;28;20902;-68
2021/01/05 12:21:38;;;;;;;10.55;5.50;;;21.10;30.50;;;;;;5028717;28;20415;-68
2021/01/05 12:24:16;;;;;;;12.40;5.90;;;21.10;30.60;;;;;;5012752;28;20400;-68
2021/01/05 12:26:42;;;;;;;10.35;5.60;;;21.10;30.40;;;;;;5013609;28;20435;-68
2021/01/05 12:29:12;;;;;;;11.55;5.40;;;21.10;30.30;;;;;;5013490;28;20391;-68
2021/01/05 12:32:03;;;;;;;9.98;5.85;;;21.10;30.20;;;;;;5012212;28;20423;-68
2021/01/05 12:34:32;;;;;;;11.93;5.30;;;21.10;30.00;;;;;;5027295;28;20477;-68
2021/01/05 12:37:04;;;;;;;10.10;5.60;;;21.00;30.20;;;;;;5033943;28;20427;-68
2021/01/05 12:39:31;;;;;;;10.90;5.80;;;21.00;30.20;;;;;;5031919;28;20387;-68
2021/01/05 12:41:59;;;;;;;10.10;5.80;;;21.00;30.10;;;;;;5032667;28;20395;-69
2021/01/05 12:44:26;;;;;;;10.52;5.97;;;21.00;30.20;;;;;;5033311;28;20481;-69
2021/01/05 12:46:53;;;;;;;10.55;5.97;;;21.00;30.40;;;;;;5032408;28;20401;-69
2021/01/05 12:49:19;;;;;;;12.63;6.30;;;21.00;30.20;;;;;;5032642;28;20446;-68
2021/01/05 12:51:46;;;;;;;9.63;5.63;;;21.00;30.20;;;;;;5033256;28;20392;-68
2021/01/05 12:54:18;;;;;;;8.63;5.90;;;21.10;30.00;;;;;;5031770;28;20399;-69
2021/01/05 12:56:44;;;;;;;12.45;6.15;;;21.10;30.00;;;;;;5031643;28;20391;-68
2021/01/05 12:59:12;;;;;;;9.95;5.57;;;21.10;30.40;;;;;;5032356;28;20421;-68